createdAt,value
2022-09-17T00:02:33.290Z,12.08
2022-09-17T00:07:33.364Z,12.07
2022-09-17T00:12:33.363Z,12.06
2022-09-17T00:17:33.342Z,12.05
2022-09-17T00:22:33.319Z,12.05
2022-09-17T00:27:33.288Z,12.07
2022-09-17T00:32:33.304Z,12.11
2022-09-17T00:37:36.358Z,12.15
2022-09-17T00:42:36.515Z,12.20
2022-09-17T00:47:36.346Z,12.25
2022-09-17T00:52:36.539Z,12.26
2022-09-17T00:57:36.636Z,12.25
2022-09-17T01:02:38.439Z,12.25
2022-09-17T01:07:38.362Z,12.25
2022-09-17T01:12:38.590Z,12.22
2022-09-17T01:17:38.317Z,12.18
2022-09-17T01:22:38.450Z,12.15
2022-09-17T01:27:43.701Z,12.13
2022-09-17T01:32:41.540Z,12.12
2022-09-17T01:37:41.340Z,12.09
2022-09-17T01:42:41.447Z,12.07
2022-09-17T01:47:41.371Z,12.07
2022-09-17T01:52:41.618Z,12.08
2022-09-17T01:57:41.484Z,12.06
2022-09-17T02:02:41.502Z,11.99
2022-09-17T02:07:41.352Z,11.87
2022-09-17T02:12:41.383Z,11.76
2022-09-17T02:17:41.484Z,11.70
2022-09-17T02:22:41.382Z,11.69
2022-09-17T02:27:42.702Z,11.73
2022-09-17T02:32:42.421Z,11.78
2022-09-17T02:37:42.415Z,11.83
2022-09-17T02:42:42.490Z,11.86
2022-09-17T02:47:42.450Z,11.87
2022-09-17T02:52:42.377Z,11.87
2022-09-17T02:57:42.400Z,11.87
2022-09-17T03:02:44.401Z,11.87
2022-09-17T03:07:44.430Z,11.88
2022-09-17T03:12:44.424Z,11.89
2022-09-17T03:17:44.509Z,11.89
2022-09-17T03:22:44.450Z,11.90
2022-09-17T03:27:44.453Z,11.88
2022-09-17T03:32:44.432Z,11.82
2022-09-17T03:37:44.421Z,11.72
2022-09-17T03:42:44.428Z,11.65
2022-09-17T03:47:44.497Z,11.61
2022-09-17T03:52:44.431Z,11.60
2022-09-17T03:57:44.438Z,11.60
2022-09-17T04:02:44.623Z,11.63
2022-09-17T04:07:44.429Z,11.66
2022-09-17T04:12:47.934Z,11.69
2022-09-17T04:17:47.555Z,11.72
2022-09-17T04:22:47.454Z,11.75
2022-09-17T04:27:47.575Z,11.78
2022-09-17T04:32:47.441Z,11.81
2022-09-17T04:37:47.554Z,11.83
2022-09-17T04:42:47.478Z,11.84
2022-09-17T04:47:47.556Z,11.80
2022-09-17T04:52:47.491Z,11.75
2022-09-17T04:57:47.592Z,11.70
2022-09-17T05:02:47.475Z,11.58
2022-09-17T05:07:47.588Z,11.41
2022-09-17T05:12:47.619Z,11.24
2022-09-17T05:17:47.582Z,11.14
2022-09-17T05:22:49.608Z,11.12
2022-09-17T05:27:49.471Z,11.15
2022-09-17T05:32:49.493Z,11.18
2022-09-17T05:37:49.507Z,11.20
2022-09-17T05:42:49.510Z,11.24
2022-09-17T05:47:49.673Z,11.37
2022-09-17T05:52:49.519Z,11.67
2022-09-17T05:57:49.580Z,12.12
2022-09-17T06:02:50.039Z,12.57
2022-09-17T06:07:50.557Z,12.96
2022-09-17T06:12:50.508Z,13.25
2022-09-17T06:17:50.591Z,13.49
2022-09-17T06:22:50.534Z,13.79
2022-09-17T06:27:50.566Z,14.13
2022-09-17T06:32:51.341Z,14.37
2022-09-17T06:37:51.680Z,14.36
2022-09-17T06:42:52.737Z,14.17
2022-09-17T06:47:52.576Z,13.91
2022-09-17T06:52:55.023Z,13.69
2022-09-17T06:57:54.720Z,13.53
2022-09-17T07:02:54.653Z,13.50
2022-09-17T07:07:57.041Z,13.71
2022-09-17T07:13:00.357Z,14.10
2022-09-17T07:18:05.053Z,14.35
2022-09-17T07:23:04.574Z,14.57
2022-09-17T07:28:12.270Z,14.89
2022-09-17T07:33:07.583Z,15.32
2022-09-17T07:38:07.586Z,15.72
2022-09-17T07:43:08.609Z,15.88
2022-09-17T07:48:08.672Z,16.02
2022-09-17T07:53:08.920Z,17.31
2022-09-17T07:58:08.631Z,19.06
2022-09-17T08:03:08.749Z,20.01
2022-09-17T08:08:09.772Z,21.87
2022-09-17T08:13:11.733Z,24.14
2022-09-17T08:18:12.597Z,26.61
2022-09-17T08:23:15.168Z,29.27
2022-09-17T08:28:18.475Z,31.43
2022-09-17T08:33:20.495Z,31.47
2022-09-17T08:38:23.133Z,29.86
2022-09-17T08:43:26.167Z,29.00
2022-09-17T08:48:25.760Z,27.88
2022-09-17T08:53:26.528Z,26.22
2022-09-17T08:59:21.540Z,26.18
2022-09-17T09:05:10.209Z,28.00
2022-09-17T09:10:08.002Z,29.01
2022-09-17T09:15:12.955Z,28.72
2022-09-17T09:20:15.311Z,27.53
2022-09-17T09:25:20.215Z,27.01
2022-09-17T09:30:23.369Z,28.55
2022-09-17T09:35:23.689Z,30.93
2022-09-17T09:40:24.011Z,31.24
2022-09-17T09:45:23.872Z,30.34
2022-09-17T09:50:38.424Z,30.37
2022-09-17T09:55:28.783Z,29.45
2022-09-17T10:00:34.381Z,27.82
2022-09-17T10:05:35.325Z,26.38
2022-09-17T10:10:35.707Z,25.83
2022-09-17T10:15:35.707Z,26.06
2022-09-17T10:20:38.481Z,25.44
2022-09-17T10:25:38.762Z,24.50
2022-09-17T10:30:41.708Z,23.71
2022-09-17T10:35:43.673Z,22.71
2022-09-17T10:40:43.714Z,21.73
2022-09-17T10:45:43.750Z,21.01
2022-09-17T10:50:43.883Z,20.67
2022-09-17T10:55:43.710Z,21.07
2022-09-17T11:00:43.976Z,21.86
2022-09-17T11:05:43.735Z,22.60
2022-09-17T11:10:43.772Z,22.93
2022-09-17T11:15:43.840Z,22.86
2022-09-17T11:20:44.074Z,22.83
2022-09-17T11:25:43.760Z,22.36
2022-09-17T11:30:43.740Z,21.85
2022-09-17T11:35:49.278Z,21.49
2022-09-17T11:40:51.107Z,21.10
2022-09-17T11:45:54.844Z,20.93
2022-09-17T11:51:00.550Z,21.13
2022-09-17T11:56:00.721Z,21.39
2022-09-17T12:01:02.247Z,21.77
2022-09-17T12:06:03.311Z,22.12
2022-09-17T12:11:04.041Z,21.93
2022-09-17T12:16:08.628Z,21.35
2022-09-17T12:21:10.830Z,20.76
2022-09-17T12:26:11.989Z,20.04
2022-09-17T12:31:11.959Z,19.45
2022-09-17T12:36:11.854Z,19.33
2022-09-17T12:41:11.825Z,19.52
2022-09-17T12:46:11.955Z,19.38
2022-09-17T12:51:12.234Z,18.66
2022-09-17T12:56:11.834Z,17.72
2022-09-17T13:01:12.019Z,16.96
2022-09-17T13:06:13.750Z,16.35
2022-09-17T13:11:13.826Z,15.84
2022-09-17T13:16:18.366Z,15.41
2022-09-17T13:21:18.391Z,15.04
2022-09-17T13:26:18.799Z,14.78
2022-09-17T13:31:18.914Z,14.63
2022-09-17T13:36:18.871Z,14.59
2022-09-17T13:41:19.248Z,14.60
2022-09-17T13:46:19.119Z,14.65
2022-09-17T13:51:18.928Z,14.75
2022-09-17T13:56:20.740Z,14.94
2022-09-17T14:01:20.899Z,15.36
2022-09-17T14:06:21.806Z,16.14
2022-09-17T14:11:24.855Z,17.12
2022-09-17T14:16:25.029Z,17.74
2022-09-17T14:21:25.104Z,17.55
2022-09-17T14:26:25.094Z,16.48
2022-09-17T14:31:25.013Z,14.98
2022-09-17T14:36:24.965Z,13.97
2022-09-17T14:41:26.053Z,13.63
2022-09-17T14:46:25.991Z,13.67
2022-09-17T14:51:26.087Z,13.68
2022-09-17T14:56:25.925Z,13.55
2022-09-17T15:01:26.029Z,13.68
2022-09-17T15:06:26.010Z,14.17
2022-09-17T15:11:25.949Z,14.58
2022-09-17T15:16:26.078Z,14.55
2022-09-17T15:21:25.916Z,14.26
2022-09-17T15:26:26.040Z,13.97
2022-09-17T15:31:26.089Z,13.77
2022-09-17T15:36:27.134Z,13.66
2022-09-17T15:41:27.236Z,13.58
2022-09-17T15:46:27.417Z,13.50
2022-09-17T15:51:27.188Z,13.54
2022-09-17T15:56:26.984Z,13.68
2022-09-17T16:01:26.985Z,13.77
2022-09-17T16:06:27.532Z,13.82
2022-09-17T16:11:27.020Z,13.77
2022-09-17T16:16:27.155Z,13.66
2022-09-17T16:21:27.393Z,13.56
2022-09-17T16:26:27.095Z,13.51
2022-09-17T16:31:27.070Z,13.44
2022-09-17T16:36:27.063Z,13.42
2022-09-17T16:41:27.094Z,13.50
2022-09-17T16:46:27.176Z,13.77
2022-09-17T16:51:27.010Z,14.16
2022-09-17T16:56:27.125Z,14.38
2022-09-17T17:01:27.228Z,14.30
2022-09-17T17:06:27.506Z,14.03
2022-09-17T17:11:28.038Z,13.70
2022-09-17T17:16:28.351Z,13.40
2022-09-17T17:21:28.123Z,13.09
2022-09-17T17:26:28.118Z,12.78
2022-09-17T17:31:28.622Z,12.52
2022-09-17T17:36:31.650Z,12.34
2022-09-17T17:41:32.358Z,12.17
2022-09-17T17:46:32.153Z,12.00
2022-09-17T17:51:32.056Z,11.82
2022-09-17T17:56:32.348Z,11.69
2022-09-17T18:01:34.611Z,11.61
2022-09-17T18:06:35.179Z,11.55
2022-09-17T18:11:35.070Z,11.46
2022-09-17T18:16:35.219Z,11.37
2022-09-17T18:21:35.094Z,11.34
2022-09-17T18:26:35.510Z,11.34
2022-09-17T18:31:35.448Z,11.32
2022-09-17T18:36:35.093Z,11.34
2022-09-17T18:41:36.939Z,11.43
2022-09-17T18:46:37.144Z,11.55
2022-09-17T18:51:37.043Z,11.68
2022-09-17T18:56:37.279Z,11.81
2022-09-17T19:01:37.229Z,11.94
2022-09-17T19:06:37.076Z,12.07
2022-09-17T19:11:37.091Z,12.17
2022-09-17T19:16:40.159Z,12.25
2022-09-17T19:21:40.088Z,12.34
2022-09-17T19:26:40.273Z,12.41
2022-09-17T19:31:40.130Z,12.49
2022-09-17T19:36:40.087Z,12.55
2022-09-17T19:41:40.110Z,12.60
2022-09-17T19:46:40.185Z,12.64
2022-09-17T19:51:40.126Z,12.72
2022-09-17T19:56:40.163Z,12.82
2022-09-17T20:01:40.231Z,12.92
2022-09-17T20:06:40.098Z,13.00
2022-09-17T20:11:40.732Z,13.07
2022-09-17T20:16:42.808Z,13.13
2022-09-17T20:21:43.134Z,13.18
2022-09-17T20:26:43.617Z,13.21
2022-09-17T20:31:43.202Z,13.24
2022-09-17T20:36:43.145Z,13.25
2022-09-17T20:41:46.298Z,13.26
2022-09-17T20:46:46.269Z,13.24
2022-09-17T20:51:46.459Z,13.22
2022-09-17T20:56:46.315Z,13.22
2022-09-17T21:01:46.307Z,13.23
2022-09-17T21:06:46.229Z,13.26
2022-09-17T21:11:49.263Z,13.30
2022-09-17T21:16:49.173Z,13.34
2022-09-17T21:21:51.050Z,13.37
2022-09-17T21:26:52.892Z,13.39
2022-09-17T21:31:53.887Z,13.41
2022-09-17T21:36:54.334Z,13.40
2022-09-17T21:41:54.192Z,13.39
2022-09-17T21:46:56.354Z,13.32
2022-09-17T21:51:56.146Z,13.17
2022-09-17T21:56:56.267Z,12.96
2022-09-17T22:02:01.210Z,12.75
2022-09-17T22:07:00.025Z,12.58
2022-09-17T22:12:01.283Z,12.45
2022-09-17T22:17:01.198Z,12.35
2022-09-17T22:22:03.132Z,12.29
2022-09-17T22:27:03.292Z,12.27
2022-09-17T22:32:03.164Z,12.28
2022-09-17T22:37:03.876Z,12.28
2022-09-17T22:42:04.209Z,12.29
2022-09-17T22:47:04.282Z,12.32
2022-09-17T22:52:04.237Z,12.34
2022-09-17T22:57:04.249Z,12.33
2022-09-17T23:02:04.332Z,12.31
2022-09-17T23:07:04.309Z,12.30
2022-09-17T23:12:04.249Z,12.31
2022-09-17T23:17:04.266Z,12.33
2022-09-17T23:22:04.249Z,12.35
2022-09-17T23:27:04.388Z,12.36
2022-09-17T23:32:04.381Z,12.36
2022-09-17T23:37:04.289Z,12.36
2022-09-17T23:42:04.269Z,12.36
2022-09-17T23:47:04.284Z,12.36
2022-09-17T23:52:04.624Z,12.36
2022-09-17T23:57:04.418Z,12.37
